Time;durP1;ratioP1;P1;durP2;ratioP2;P2;SDS_P1;SDS_P2;PMS_P1;PMS_P2;Temp;Humidity;BMP_temperature;BMP_pressure;BME280_temperature;BME280_humidity;BME280_pressure;Samples;Min_cycle;Max_cycle;Signal;HPM_P1;HPM_P2
2022/10/24 00:00:46;;;;;;;3.45;1.77;;;;;;;;;;5114661;28;20031;-66
2022/10/24 00:03:13;;;;;;;2.72;1.30;;;;;;;;;;5118951;27;20019;-69
2022/10/24 00:05:44;;;;;;;4.68;1.52;;;;;;;;;;5113731;28;20059;-68
2022/10/24 00:08:11;;;;;;;2.55;1.35;;;;;;;;;;5103220;28;20367;-67
2022/10/24 00:10:37;;;;;;;5.75;1.60;;;;;;;;;;5089226;28;20024;-66
2022/10/24 00:13:05;;;;;;;1.98;1.25;;;;;;;;;;5089305;28;20032;-67
2022/10/24 00:15:32;;;;;;;2.15;1.23;;;;;;;;;;5089236;28;20794;-66
2022/10/24 00:17:59;;;;;;;2.78;1.50;;;;;;;;;;5096389;28;20020;-67
2022/10/24 00:20:25;;;;;;;14.13;1.10;;;;;;;;;;5114849;28;20023;-69
2022/10/24 00:22:52;;;;;;;2.58;1.33;;;;;;;;;;5112713;28;20047;-65
2022/10/24 00:25:19;;;;;;;3.33;1.73;;;;;;;;;;5114769;28;20073;-64
2022/10/24 00:27:45;;;;;;;2.05;1.17;;;;;;;;;;5112477;28;20063;-63
2022/10/24 00:30:12;;;;;;;2.70;1.30;;;;;;;;;;5108113;28;20024;-64
2022/10/24 00:32:39;;;;;;;3.53;1.20;;;;;;;;;;5094192;28;20031;-65
2022/10/24 00:35:06;;;;;;;6.20;1.30;;;;;;;;;;5094862;28;20030;-65
2022/10/24 00:37:32;;;;;;;1.25;1.00;;;;;;;;;;5092214;28;20058;-66
2022/10/24 00:39:59;;;;;;;6.97;1.30;;;;;;;;;;5096345;28;20023;-66
2022/10/24 00:42:25;;;;;;;2.97;1.57;;;;;;;;;;5113538;28;20032;-66
2022/10/24 00:44:53;;;;;;;8.50;3.97;;;;;;;;;;5114222;27;20547;-64
2022/10/24 00:47:22;;;;;;;23.95;4.20;;;;;;;;;;5103445;28;20387;-64
2022/10/24 00:49:50;;;;;;;5.50;3.10;;;;;;;;;;5100124;28;20085;-64
2022/10/24 00:52:23;;;;;;;9.80;4.80;;;;;;;;;;5109269;28;20154;-65
2022/10/24 00:54:51;;;;;;;3.30;1.93;;;;;;;;;;5089022;28;20816;-64
2022/10/24 00:57:39;;;;;;;6.33;2.90;;;;;;;;;;5088495;28;20062;-66
2022/10/24 01:00:08;;;;;;;3.83;1.33;;;;;;;;;;5088521;28;20032;-65
2022/10/24 01:02:34;;;;;;;5.23;2.43;;;;;;;;;;5101189;27;20543;-64
2022/10/24 01:05:02;;;;;;;20.33;4.10;;;;;;;;;;5098198;28;20115;-64
2022/10/24 01:07:38;;;;;;;12.03;4.77;;;;;;;;;;5093276;28;20024;-65
2022/10/24 01:10:21;;;;;;;8.40;5.23;;;;;;;;;;5109745;28;20035;-64
2022/10/24 01:13:00;;;;;;;8.13;3.40;;;;;;;;;;5112945;28;20077;-62
2022/10/24 01:15:26;;;;;;;6.47;3.43;;;;;;;;;;5112728;28;20114;-64
2022/10/24 01:18:02;;;;;;;8.70;2.53;;;;;;;;;;5106629;28;20072;-64
2022/10/24 01:20:32;;;;;;;9.70;2.67;;;;;;;;;;5108490;28;20038;-64
2022/10/24 01:23:37;;;;;;;6.37;3.00;;;;;;;;;;5107746;28;20024;-63
2022/10/24 01:26:24;;;;;;;3.85;2.40;;;;;;;;;;5045538;28;20026;-64
2022/10/24 01:29:08;;;;;;;4.70;1.80;;;;;;;;;;5050389;28;20094;-63
2022/10/24 01:31:41;;;;;;;7.55;2.70;;;;;;;;;;5094450;28;20043;-63
2022/10/24 01:34:10;;;;;;;5.10;3.03;;;;;;;;;;5113169;28;20028;-63
2022/10/24 01:36:43;;;;;;;6.60;3.30;;;;;;;;;;5095410;28;20381;-63
2022/10/24 01:39:13;;;;;;;4.10;2.17;;;;;;;;;;5093076;28;20027;-63
2022/10/24 01:41:41;;;;;;;6.07;2.73;;;;;;;;;;5107921;28;20031;-63
2022/10/24 01:44:08;;;;;;;5.23;2.37;;;;;;;;;;5107847;28;20112;-63
2022/10/24 01:46:40;;;;;;;6.77;2.20;;;;;;;;;;5106368;28;20391;-64
2022/10/24 01:49:11;;;;;;;9.87;2.50;;;;;;;;;;5111236;28;20050;-63
2022/10/24 01:51:39;;;;;;;6.13;3.20;;;;;;;;;;5113008;28;20085;-63
2022/10/24 01:54:07;;;;;;;3.77;1.63;;;;;;;;;;5112429;28;20091;-63
2022/10/24 01:56:33;;;;;;;4.83;2.70;;;;;;;;;;5102849;28;20084;-63
2022/10/24 01:59:08;;;;;;;5.70;3.60;;;;;;;;;;5107016;28;20027;-63
2022/10/24 02:01:35;;;;;;;5.43;2.47;;;;;;;;;;5099754;28;20024;-63
2022/10/24 02:04:03;;;;;;;2.50;1.63;;;;;;;;;;5125145;27;20047;-63
2022/10/24 02:06:33;;;;;;;3.80;1.50;;;;;;;;;;5086937;28;20059;-63
2022/10/24 02:09:04;;;;;;;2.67;1.77;;;;;;;;;;5085753;28;20024;-62
2022/10/24 02:11:33;;;;;;;10.13;2.40;;;;;;;;;;5090587;28;20078;-63
2022/10/24 02:14:05;;;;;;;2.50;1.47;;;;;;;;;;5092456;28;20082;-63
2022/10/24 02:16:32;;;;;;;4.87;2.13;;;;;;;;;;5094980;28;20081;-63
2022/10/24 02:19:00;;;;;;;3.17;1.97;;;;;;;;;;5095059;28;20039;-62
2022/10/24 02:21:45;;;;;;;1.43;0.93;;;;;;;;;;5092349;28;20063;-63
2022/10/24 02:24:37;;;;;;;2.55;1.17;;;;;;;;;;5091476;28;20028;-63
2022/10/24 02:27:07;;;;;;;2.97;1.37;;;;;;;;;;5086229;28;20039;-63
2022/10/24 02:29:41;;;;;;;3.70;2.00;;;;;;;;;;5097175;28;20441;-62
2022/10/24 02:32:10;;;;;;;4.00;1.43;;;;;;;;;;5099734;28;20546;-63
2022/10/24 02:34:38;;;;;;;1.83;1.13;;;;;;;;;;5098495;28;20020;-63
2022/10/24 02:37:05;;;;;;;2.63;1.83;;;;;;;;;;5095256;28;20081;-63
2022/10/24 02:39:33;;;;;;;2.03;1.33;;;;;;;;;;5092666;28;20035;-63
2022/10/24 02:42:01;;;;;;;3.23;1.53;;;;;;;;;;5094858;28;20052;-63
2022/10/24 02:44:28;;;;;;;1.17;0.90;;;;;;;;;;5110289;28;20051;-62
2022/10/24 02:46:56;;;;;;;0.97;0.83;;;;;;;;;;5103088;28;20366;-62
2022/10/24 02:49:23;;;;;;;0.97;0.80;;;;;;;;;;5107146;28;20016;-63
2022/10/24 02:51:51;;;;;;;1.13;0.73;;;;;;;;;;5103598;28;20370;-63
2022/10/24 02:54:17;;;;;;;3.87;1.47;;;;;;;;;;5105509;28;20034;-62
2022/10/24 02:56:47;;;;;;;11.20;1.53;;;;;;;;;;5102429;28;20032;-63
2022/10/24 02:59:14;;;;;;;1.77;1.20;;;;;;;;;;5101335;28;20115;-63
2022/10/24 03:01:40;;;;;;;3.17;1.50;;;;;;;;;;5104083;28;20055;-62
2022/10/24 03:04:07;;;;;;;1.03;0.93;;;;;;;;;;5099832;27;20355;-62
2022/10/24 03:06:34;;;;;;;2.27;1.40;;;;;;;;;;5105872;28;20066;-62
2022/10/24 03:09:00;;;;;;;1.80;1.10;;;;;;;;;;5097920;28;20035;-62
2022/10/24 03:11:27;;;;;;;4.60;1.53;;;;;;;;;;5107150;28;20020;-62
2022/10/24 03:13:54;;;;;;;3.93;1.97;;;;;;;;;;5101966;28;20056;-62
2022/10/24 03:16:20;;;;;;;18.17;1.80;;;;;;;;;;5110622;28;20498;-62
2022/10/24 03:18:47;;;;;;;1.87;1.30;;;;;;;;;;5114188;27;20474;-62
2022/10/24 03:21:14;;;;;;;2.43;0.93;;;;;;;;;;5107633;28;20474;-62
2022/10/24 03:23:40;;;;;;;3.37;1.53;;;;;;;;;;5095363;28;20032;-62
2022/10/24 03:26:07;;;;;;;3.63;2.07;;;;;;;;;;5095253;28;20016;-62
2022/10/24 03:28:33;;;;;;;1.17;0.80;;;;;;;;;;5095449;28;20060;-62
2022/10/24 03:31:00;;;;;;;4.40;1.50;;;;;;;;;;5100054;28;20564;-61
2022/10/24 03:33:27;;;;;;;5.20;1.20;;;;;;;;;;5110431;28;20505;-62
2022/10/24 03:35:54;;;;;;;1.73;1.20;;;;;;;;;;5110128;28;20024;-61
2022/10/24 03:38:22;;;;;;;1.80;1.30;;;;;;;;;;5100922;28;20016;-62
2022/10/24 03:40:49;;;;;;;2.30;1.33;;;;;;;;;;5093311;28;20050;-62
2022/10/24 03:43:16;;;;;;;1.70;1.40;;;;;;;;;;5095725;28;20025;-62
2022/10/24 03:45:43;;;;;;;2.17;1.50;;;;;;;;;;5115197;28;20473;-62
2022/10/24 03:48:09;;;;;;;1.10;1.00;;;;;;;;;;5115315;28;20034;-62
2022/10/24 03:50:36;;;;;;;1.07;0.70;;;;;;;;;;5115531;28;20478;-62
2022/10/24 03:53:03;;;;;;;3.33;1.70;;;;;;;;;;5109239;28;20106;-62
2022/10/24 03:55:30;;;;;;;2.43;1.47;;;;;;;;;;5108237;28;20028;-62
2022/10/24 03:57:56;;;;;;;5.57;1.70;;;;;;;;;;5105547;28;20076;-63
2022/10/24 04:00:23;;;;;;;4.10;2.30;;;;;;;;;;5097660;28;20451;-63
2022/10/24 04:02:50;;;;;;;4.50;1.37;;;;;;;;;;5118407;27;20056;-62
2022/10/24 04:05:17;;;;;;;3.40;1.87;;;;;;;;;;5095619;28;20028;-63
2022/10/24 04:07:44;;;;;;;1.90;1.30;;;;;;;;;;5094676;28;20012;-62
2022/10/24 04:10:11;;;;;;;2.93;1.97;;;;;;;;;;5095203;28;20513;-64
2022/10/24 04:12:37;;;;;;;1.20;1.10;;;;;;;;;;5094720;28;20552;-64
2022/10/24 04:15:04;;;;;;;2.33;1.40;;;;;;;;;;5091555;28;20848;-64
2022/10/24 04:17:31;;;;;;;3.43;1.83;;;;;;;;;;5089126;28;20055;-64
2022/10/24 04:19:58;;;;;;;1.87;1.40;;;;;;;;;;5106208;28;20493;-65
2022/10/24 04:22:24;;;;;;;3.03;1.87;;;;;;;;;;5109593;28;20028;-64
2022/10/24 04:24:51;;;;;;;13.13;1.53;;;;;;;;;;5111803;28;20020;-64
2022/10/24 04:27:18;;;;;;;3.60;1.20;;;;;;;;;;5113357;28;20027;-64
2022/10/24 04:29:44;;;;;;;3.47;1.83;;;;;;;;;;5099727;28;20433;-64
2022/10/24 04:32:11;;;;;;;1.80;1.10;;;;;;;;;;5113219;28;20085;-64
2022/10/24 04:34:38;;;;;;;2.73;1.73;;;;;;;;;;5114136;28;20027;-64
2022/10/24 04:37:05;;;;;;;2.80;1.80;;;;;;;;;;5112076;28;20015;-66
2022/10/24 04:39:31;;;;;;;2.10;1.70;;;;;;;;;;5089960;28;20082;-66
2022/10/24 04:41:58;;;;;;;2.10;1.70;;;;;;;;;;5102297;28;20023;-65
2022/10/24 04:44:24;;;;;;;3.43;1.90;;;;;;;;;;5108861;28;20040;-66
2022/10/24 04:46:51;;;;;;;3.57;1.77;;;;;;;;;;5110367;28;20027;-65
2022/10/24 04:49:18;;;;;;;2.40;1.60;;;;;;;;;;5114175;28;20103;-65
2022/10/24 04:51:45;;;;;;;1.77;1.07;;;;;;;;;;5101940;28;20032;-66
2022/10/24 04:54:12;;;;;;;1.03;0.97;;;;;;;;;;5093701;28;20802;-65
2022/10/24 04:56:38;;;;;;;0.90;0.77;;;;;;;;;;5093626;28;20546;-65
2022/10/24 04:59:05;;;;;;;0.93;0.83;;;;;;;;;;5098030;28;20051;-65
2022/10/24 05:01:32;;;;;;;1.77;1.30;;;;;;;;;;5109591;27;20023;-66
2022/10/24 05:03:58;;;;;;;2.50;1.90;;;;;;;;;;5129091;27;20023;-65
2022/10/24 05:06:25;;;;;;;2.40;1.93;;;;;;;;;;5129290;27;20079;-65
2022/10/24 05:08:52;;;;;;;3.57;2.30;;;;;;;;;;5123646;27;20129;-67
2022/10/24 05:11:18;;;;;;;10.90;3.27;;;;;;;;;;5113918;28;20378;-65
2022/10/24 05:13:45;;;;;;;2.43;1.80;;;;;;;;;;5113686;28;20482;-65
2022/10/24 05:16:12;;;;;;;2.07;1.50;;;;;;;;;;5113772;28;20019;-65
2022/10/24 05:18:38;;;;;;;1.50;1.13;;;;;;;;;;5113560;28;20168;-65
2022/10/24 05:21:05;;;;;;;2.03;1.50;;;;;;;;;;5111434;28;20473;-65
2022/10/24 05:23:32;;;;;;;1.90;1.43;;;;;;;;;;5108372;28;20474;-65
2022/10/24 05:25:58;;;;;;;1.40;1.30;;;;;;;;;;5108142;28;20030;-65
2022/10/24 05:28:25;;;;;;;2.17;1.57;;;;;;;;;;5108367;28;20099;-65
2022/10/24 05:30:51;;;;;;;2.20;1.40;;;;;;;;;;5108091;28;20034;-64
2022/10/24 05:33:18;;;;;;;1.70;1.10;;;;;;;;;;5112701;28;20038;-64
2022/10/24 05:35:45;;;;;;;8.00;2.03;;;;;;;;;;5113254;28;20027;-64
2022/10/24 05:38:11;;;;;;;2.63;1.73;;;;;;;;;;5104604;28;20047;-64
2022/10/24 05:40:38;;;;;;;2.47;1.40;;;;;;;;;;5093080;28;20023;-63
2022/10/24 05:43:05;;;;;;;2.13;1.43;;;;;;;;;;5092197;28;20016;-63
2022/10/24 05:45:31;;;;;;;2.70;2.27;;;;;;;;;;5095869;28;20354;-63
2022/10/24 05:47:58;;;;;;;3.23;2.10;;;;;;;;;;5107963;28;20015;-63
2022/10/24 05:50:25;;;;;;;5.23;2.80;;;;;;;;;;5108053;28;20080;-63
2022/10/24 05:52:52;;;;;;;3.90;2.00;;;;;;;;;;5107952;28;20084;-63
2022/10/24 05:55:19;;;;;;;3.90;2.80;;;;;;;;;;5111530;28;20374;-63
2022/10/24 05:57:46;;;;;;;1.70;1.23;;;;;;;;;;5102120;28;20031;-63
2022/10/24 06:00:14;;;;;;;2.03;1.67;;;;;;;;;;5092445;28;20024;-63
2022/10/24 06:02:40;;;;;;;2.60;1.23;;;;;;;;;;5113586;27;20152;-63
2022/10/24 06:05:08;;;;;;;17.07;2.37;;;;;;;;;;5133496;27;20047;-62
2022/10/24 06:07:34;;;;;;;7.10;3.30;;;;;;;;;;5128380;27;20046;-62
2022/10/24 06:10:02;;;;;;;2.93;1.90;;;;;;;;;;5116426;27;20051;-62
2022/10/24 06:12:28;;;;;;;4.30;2.40;;;;;;;;;;5107583;28;20028;-64
2022/10/24 06:14:56;;;;;;;10.00;3.90;;;;;;;;;;5107625;28;20097;-63
2022/10/24 06:17:23;;;;;;;2.10;1.63;;;;;;;;;;5111917;28;20024;-61
2022/10/24 06:19:49;;;;;;;8.40;2.13;;;;;;;;;;5112725;28;20020;-63
2022/10/24 06:22:17;;;;;;;2.80;2.10;;;;;;;;;;5102752;28;20027;-65
2022/10/24 06:24:44;;;;;;;17.23;3.00;;;;;;;;;;5110453;28;20027;-62
2022/10/24 06:27:10;;;;;;;5.40;2.63;;;;;;;;;;5112488;28;20179;-61
2022/10/24 06:29:37;;;;;;;9.17;6.73;;;;;;;;;;5107869;28;20023;-62
2022/10/24 06:32:04;;;;;;;12.30;3.70;;;;;;;;;;5107422;28;20079;-62
2022/10/24 06:34:31;;;;;;;5.63;4.10;;;;;;;;;;5106508;28;20111;-62
2022/10/24 06:36:57;;;;;;;4.87;3.93;;;;;;;;;;5107430;28;20051;-60
2022/10/24 06:39:24;;;;;;;6.77;3.00;;;;;;;;;;5092765;28;20034;-60
2022/10/24 06:41:51;;;;;;;1.70;1.40;;;;;;;;;;5092117;28;20058;-61
2022/10/24 06:44:17;;;;;;;4.43;2.30;;;;;;;;;;5092069;28;20078;-61
2022/10/24 06:46:44;;;;;;;3.10;1.97;;;;;;;;;;5107643;28;20031;-61
2022/10/24 06:49:14;;;;;;;3.70;2.77;;;;;;;;;;5112806;28;20079;-61
2022/10/24 06:51:41;;;;;;;2.30;1.77;;;;;;;;;;5111944;28;20024;-61
2022/10/24 06:54:08;;;;;;;2.30;1.70;;;;;;;;;;5111100;28;20125;-61
2022/10/24 06:56:34;;;;;;;1.93;1.70;;;;;;;;;;5111197;28;20063;-61
2022/10/24 06:59:01;;;;;;;2.40;1.83;;;;;;;;;;5091259;28;20422;-61
2022/10/24 07:01:30;;;;;;;1.20;1.10;;;;;;;;;;5093763;28;20015;-60
2022/10/24 07:03:56;;;;;;;5.10;2.33;;;;;;;;;;5095988;28;20027;-61
2022/10/24 07:06:25;;;;;;;1.93;1.57;;;;;;;;;;5095810;28;20028;-61
2022/10/24 07:08:52;;;;;;;4.00;2.63;;;;;;;;;;5096669;28;20020;-61
2022/10/24 07:11:19;;;;;;;2.60;2.00;;;;;;;;;;5116098;28;20020;-60
2022/10/24 07:13:46;;;;;;;4.00;1.87;;;;;;;;;;5111755;28;20028;-60
2022/10/24 07:16:13;;;;;;;1.53;1.20;;;;;;;;;;5110692;28;20492;-61
2022/10/24 07:18:40;;;;;;;2.80;2.10;;;;;;;;;;5110435;28;20042;-61
2022/10/24 07:21:08;;;;;;;3.47;2.57;;;;;;;;;;5108255;28;20373;-61
2022/10/24 07:23:35;;;;;;;5.70;2.40;;;;;;;;;;5093140;28;20044;-61
2022/10/24 07:26:09;;;;;;;3.03;2.50;;;;;;;;;;5095665;28;20348;-61
2022/10/24 07:28:36;;;;;;;15.57;1.65;;;;;;;;;;5095420;28;20020;-61
2022/10/24 07:31:03;;;;;;;2.63;1.70;;;;;;;;;;5095294;28;20028;-61
2022/10/24 07:33:30;;;;;;;1.97;1.50;;;;;;;;;;5100596;28;20036;-60
2022/10/24 07:35:57;;;;;;;3.37;2.53;;;;;;;;;;5112194;28;20031;-61
2022/10/24 07:38:23;;;;;;;3.93;2.30;;;;;;;;;;5110383;28;20031;-61
2022/10/24 07:40:50;;;;;;;2.67;2.03;;;;;;;;;;5110316;28;20039;-60
2022/10/24 07:43:17;;;;;;;5.60;3.27;;;;;;;;;;5110364;28;20484;-61
2022/10/24 07:45:44;;;;;;;3.03;2.53;;;;;;;;;;5103869;28;20089;-62
2022/10/24 07:48:11;;;;;;;7.03;2.60;;;;;;;;;;5095026;28;20067;-61
2022/10/24 07:50:44;;;;;;;1.80;1.60;;;;;;;;;;5094817;28;20030;-61
2022/10/24 07:53:11;;;;;;;1.80;1.50;;;;;;;;;;5094796;28;20036;-61
2022/10/24 07:55:42;;;;;;;2.27;1.87;;;;;;;;;;5110500;28;20023;-61
2022/10/24 07:58:09;;;;;;;3.37;2.30;;;;;;;;;;5099705;28;20032;-61
2022/10/24 08:00:36;;;;;;;2.00;1.63;;;;;;;;;;5092468;28;20049;-61
2022/10/24 08:03:03;;;;;;;5.90;2.90;;;;;;;;;;5089585;28;20020;-60
2022/10/24 08:05:30;;;;;;;2.13;1.83;;;;;;;;;;5109799;28;20058;-61
2022/10/24 08:07:57;;;;;;;2.50;2.07;;;;;;;;;;5112302;28;20024;-61
2022/10/24 08:10:23;;;;;;;2.77;2.30;;;;;;;;;;5114977;28;20024;-61
2022/10/24 08:12:50;;;;;;;4.87;2.77;;;;;;;;;;5114915;28;20019;-61
2022/10/24 08:15:17;;;;;;;2.53;1.83;;;;;;;;;;5095523;28;20081;-61
2022/10/24 08:17:43;;;;;;;2.63;2.07;;;;;;;;;;5094313;28;20055;-62
2022/10/24 08:20:10;;;;;;;1.50;1.13;;;;;;;;;;5091322;28;20058;-61
2022/10/24 08:22:37;;;;;;;2.60;2.00;;;;;;;;;;5089156;28;20106;-61
2022/10/24 08:25:05;;;;;;;2.20;1.80;;;;;;;;;;5091334;28;20036;-60
2022/10/24 08:27:31;;;;;;;4.60;1.50;;;;;;;;;;5109420;28;20110;-61
2022/10/24 08:29:58;;;;;;;2.30;1.83;;;;;;;;;;5111152;28;20027;-61
2022/10/24 08:32:25;;;;;;;2.33;2.07;;;;;;;;;;5114641;28;20023;-61
2022/10/24 08:34:52;;;;;;;2.33;1.83;;;;;;;;;;5102210;27;20043;-60
2022/10/24 08:37:18;;;;;;;4.13;1.93;;;;;;;;;;5093693;28;20043;-61
2022/10/24 08:39:45;;;;;;;2.63;1.93;;;;;;;;;;5094095;28;20020;-61
2022/10/24 08:42:13;;;;;;;1.47;1.13;;;;;;;;;;5091829;28;20035;-61
2022/10/24 08:44:41;;;;;;;2.40;1.83;;;;;;;;;;5097327;28;20034;-61
2022/10/24 08:47:11;;;;;;;2.37;1.67;;;;;;;;;;5108804;28;20047;-61
2022/10/24 08:49:37;;;;;;;3.70;1.73;;;;;;;;;;5107191;28;20375;-62
2022/10/24 08:52:16;;;;;;;1.80;1.30;;;;;;;;;;5109960;28;20022;-61
2022/10/24 08:54:43;;;;;;;2.17;1.43;;;;;;;;;;5114132;28;20058;-61
2022/10/24 08:57:23;;;;;;;2.87;1.80;;;;;;;;;;5108533;28;20051;-62
2022/10/24 08:59:52;;;;;;;2.47;2.03;;;;;;;;;;5093573;28;20540;-61
2022/10/24 09:02:21;;;;;;;2.20;1.40;;;;;;;;;;5093345;28;20103;-61
2022/10/24 09:04:55;;;;;;;2.07;1.77;;;;;;;;;;5090817;28;20027;-60
2022/10/24 09:07:22;;;;;;;1.57;1.30;;;;;;;;;;5094427;28;20035;-61
2022/10/24 09:09:51;;;;;;;2.63;1.87;;;;;;;;;;5108347;28;20486;-61
2022/10/24 09:12:19;;;;;;;2.77;2.00;;;;;;;;;;5108096;28;20114;-61
2022/10/24 09:14:50;;;;;;;3.17;2.37;;;;;;;;;;5110713;28;20066;-61
2022/10/24 09:17:19;;;;;;;2.40;1.93;;;;;;;;;;5113691;28;20494;-60
2022/10/24 09:19:50;;;;;;;2.63;2.13;;;;;;;;;;5105394;28;20091;-60
2022/10/24 09:22:17;;;;;;;4.03;3.03;;;;;;;;;;5093267;28;20422;-60
2022/10/24 09:25:01;;;;;;;2.60;1.90;;;;;;;;;;5093241;28;20368;-61
2022/10/24 09:27:29;;;;;;;2.00;1.40;;;;;;;;;;5089230;28;20073;-61
2022/10/24 09:29:58;;;;;;;2.20;1.90;;;;;;;;;;5087731;28;20439;-61
2022/10/24 09:32:29;;;;;;;4.43;3.03;;;;;;;;;;5102010;28;20031;-61
2022/10/24 09:34:59;;;;;;;2.33;1.43;;;;;;;;;;5108013;28;20104;-61
2022/10/24 09:37:29;;;;;;;2.77;2.00;;;;;;;;;;5111064;28;20031;-61
2022/10/24 09:40:14;;;;;;;3.13;2.10;;;;;;;;;;5113286;28;20016;-61
2022/10/24 09:42:47;;;;;;;1.77;1.40;;;;;;;;;;5113051;28;20498;-61
2022/10/24 09:45:23;;;;;;;6.00;2.30;;;;;;;;;;5093773;28;20028;-61
2022/10/24 09:48:10;;;;;;;3.83;2.20;;;;;;;;;;5092981;28;20046;-61
2022/10/24 09:50:41;;;;;;;2.90;2.30;;;;;;;;;;5079999;28;20043;-61
2022/10/24 09:53:15;;;;;;;3.97;2.63;;;;;;;;;;5087448;28;20027;-60
2022/10/24 09:55:45;;;;;;;2.58;1.92;;;;;;;;;;5095304;28;20120;-60
2022/10/24 09:58:18;;;;;;;3.23;2.13;;;;;;;;;;5107484;28;20890;-61
2022/10/24 10:00:55;;;;;;;3.07;2.13;;;;;;;;;;5112915;28;20027;-61
2022/10/24 10:03:22;;;;;;;2.90;1.90;;;;;;;;;;5112955;28;20026;-61
2022/10/24 10:05:51;;;;;;;1.80;1.27;;;;;;;;;;5112899;28;20077;-61
2022/10/24 10:08:22;;;;;;;3.13;2.07;;;;;;;;;;5096997;28;20060;-61
2022/10/24 10:10:56;;;;;;;3.70;2.10;;;;;;;;;;5091450;28;20016;-60
2022/10/24 10:13:25;;;;;;;2.25;1.85;;;;;;;;;;5087048;28;20064;-61
2022/10/24 10:15:55;;;;;;;1.90;1.60;;;;;;;;;;5087188;28;20358;-60
2022/10/24 10:18:28;;;;;;;1.57;1.47;;;;;;;;;;5087193;28;20023;-61
2022/10/24 10:21:03;;;;;;;2.23;1.33;;;;;;;;;;5107733;28;20486;-60
2022/10/24 10:23:32;;;;;;;3.30;2.50;;;;;;;;;;5112573;28;20015;-60
2022/10/24 10:26:17;;;;;;;2.80;1.87;;;;;;;;;;5116075;28;20054;-60
2022/10/24 10:28:55;;;;;;;5.57;1.52;;;;;;;;;;5117026;28;20403;-60
2022/10/24 10:31:26;;;;;;;2.47;1.80;;;;;;;;;;5107578;28;20073;-61
2022/10/24 10:33:52;;;;;;;3.20;2.20;;;;;;;;;;5093720;28;20024;-61
2022/10/24 10:36:33;;;;;;;10.63;2.53;;;;;;;;;;5091173;28;20031;-60
2022/10/24 10:39:03;;;;;;;3.60;2.37;;;;;;;;;;5096905;28;20128;-61
2022/10/24 10:41:44;;;;;;;2.30;1.20;;;;;;;;;;5111376;28;20024;-61
2022/10/24 10:44:14;;;;;;;3.37;2.60;;;;;;;;;;5114175;28;20024;-61
2022/10/24 10:46:53;;;;;;;1.80;1.40;;;;;;;;;;5116588;28;20015;-61
2022/10/24 10:49:48;;;;;;;4.30;2.23;;;;;;;;;;5108390;28;20080;-61
2022/10/24 10:52:18;;;;;;;2.20;1.67;;;;;;;;;;5087055;28;20077;-60
2022/10/24 10:54:45;;;;;;;2.60;1.80;;;;;;;;;;5095994;28;20036;-61
2022/10/24 10:57:13;;;;;;;2.67;2.07;;;;;;;;;;5091338;28;20124;-60
2022/10/24 10:59:47;;;;;;;3.33;1.93;;;;;;;;;;5090603;28;20032;-60
2022/10/24 11:02:32;;;;;;;2.50;1.80;;;;;;;;;;5106434;28;20466;-60
2022/10/24 11:04:58;;;;;;;3.17;2.22;;;;;;;;;;5111248;28;20050;-60
2022/10/24 11:07:48;;;;;;;1.57;1.40;;;;;;;;;;5115922;28;20026;-60
2022/10/24 11:10:19;;;;;;;1.80;1.53;;;;;;;;;;5110572;28;20079;-61
2022/10/24 11:12:46;;;;;;;2.57;1.97;;;;;;;;;;5112889;28;20060;-61
2022/10/24 11:15:21;;;;;;;3.30;2.57;;;;;;;;;;5095725;28;20509;-60
2022/10/24 11:17:52;;;;;;;5.60;3.23;;;;;;;;;;5094600;28;20407;-60
2022/10/24 11:20:27;;;;;;;5.00;1.90;;;;;;;;;;5090344;28;20032;-61
2022/10/24 11:23:14;;;;;;;2.43;1.80;;;;;;;;;;5090280;28;20119;-61
2022/10/24 11:25:50;;;;;;;1.57;1.40;;;;;;;;;;5097513;28;20373;-61
2022/10/24 11:28:21;;;;;;;2.57;1.97;;;;;;;;;;5112171;28;20382;-60
2022/10/24 11:30:58;;;;;;;1.37;1.10;;;;;;;;;;5115616;28;20094;-60
2022/10/24 11:33:30;;;;;;;3.07;2.23;;;;;;;;;;5115779;28;20463;-60
2022/10/24 11:36:09;;;;;;;2.70;2.33;;;;;;;;;;5115261;28;20024;-61
2022/10/24 11:38:39;;;;;;;3.43;2.40;;;;;;;;;;5100464;28;20016;-60
2022/10/24 11:41:24;;;;;;;3.27;2.30;;;;;;;;;;5092122;28;20016;-60
2022/10/24 11:43:53;;;;;;;2.53;2.03;;;;;;;;;;5089592;28;20202;-61
2022/10/24 11:46:24;;;;;;;1.80;1.40;;;;;;;;;;5089781;28;20016;-60
2022/10/24 11:49:14;;;;;;;2.63;1.97;;;;;;;;;;5089837;28;20024;-61
2022/10/24 11:51:43;;;;;;;2.43;2.20;;;;;;;;;;5088206;28;20138;-60
2022/10/24 11:54:17;;;;;;;3.63;2.90;;;;;;;;;;5094958;28;20035;-60
2022/10/24 11:56:51;;;;;;;6.03;2.47;;;;;;;;;;5094963;28;20027;-61
2022/10/24 11:59:26;;;;;;;2.92;2.45;;;;;;;;;;5094800;28;20032;-60
2022/10/24 12:01:55;;;;;;;5.10;2.80;;;;;;;;;;5103519;28;20107;-60
2022/10/24 12:04:37;;;;;;;3.13;2.27;;;;;;;;;;5109762;28;20027;-60
2022/10/24 12:07:22;;;;;;;2.30;1.80;;;;;;;;;;5109701;28;20019;-60
2022/10/24 12:09:58;;;;;;;3.38;2.40;;;;;;;;;;5109952;28;20026;-60
2022/10/24 12:12:28;;;;;;;2.33;1.90;;;;;;;;;;5110239;28;20042;-60
2022/10/24 12:15:13;;;;;;;3.97;3.30;;;;;;;;;;5097303;28;20046;-61
2022/10/24 12:17:52;;;;;;;6.25;3.40;;;;;;;;;;5094452;28;20169;-60
2022/10/24 12:20:20;;;;;;;4.67;3.80;;;;;;;;;;5094440;28;20539;-60
2022/10/24 12:22:48;;;;;;;5.13;3.53;;;;;;;;;;5094586;28;20020;-60
2022/10/24 12:25:14;;;;;;;5.37;3.50;;;;;;;;;;5111251;28;20088;-60
2022/10/24 12:27:41;;;;;;;4.33;3.57;;;;;;;;;;5099741;27;20115;-60
2022/10/24 12:30:16;;;;;;;7.33;2.90;;;;;;;;;;5108910;28;20024;-60
2022/10/24 12:32:46;;;;;;;5.03;3.38;;;;;;;;;;5109440;28;20035;-60
2022/10/24 12:35:33;;;;;;;6.70;4.23;;;;;;;;;;5110853;28;20423;-60
2022/10/24 12:38:00;;;;;;;2.97;2.67;;;;;;;;;;5110763;28;20012;-60
2022/10/24 12:40:45;;;;;;;3.83;2.67;;;;;;;;;;5114417;28;20098;-60
2022/10/24 12:43:12;;;;;;;2.63;2.08;;;;;;;;;;5114396;27;20020;-60
2022/10/24 12:45:38;;;;;;;7.07;2.73;;;;;;;;;;5114367;28;20027;-60
2022/10/24 12:48:26;;;;;;;4.37;2.60;;;;;;;;;;5109429;28;20023;-60
2022/10/24 12:51:00;;;;;;;5.13;2.80;;;;;;;;;;5088451;28;20032;-60
2022/10/24 12:53:31;;;;;;;2.55;2.05;;;;;;;;;;5088523;28;20457;-60
2022/10/24 12:55:58;;;;;;;4.47;3.23;;;;;;;;;;5106077;28;20080;-62
2022/10/24 12:58:29;;;;;;;3.53;2.13;;;;;;;;;;5112501;28;20114;-60
2022/10/24 13:01:06;;;;;;;3.17;2.77;;;;;;;;;;5114150;27;20030;-60
2022/10/24 13:03:54;;;;;;;2.90;2.33;;;;;;;;;;5114055;28;20030;-60
2022/10/24 13:06:27;;;;;;;39.13;2.90;;;;;;;;;;5093873;28;20028;-60
2022/10/24 13:08:57;;;;;;;3.93;3.10;;;;;;;;;;5093358;28;20375;-60
2022/10/24 13:11:35;;;;;;;8.93;3.67;;;;;;;;;;5088113;28;20084;-60
2022/10/24 13:14:15;;;;;;;4.07;2.90;;;;;;;;;;5088132;28;20035;-60
2022/10/24 13:17:00;;;;;;;5.57;3.60;;;;;;;;;;5091390;28;20027;-60
2022/10/24 13:19:28;;;;;;;8.73;4.07;;;;;;;;;;5109363;28;20107;-60
2022/10/24 13:21:56;;;;;;;3.63;2.90;;;;;;;;;;5113654;28;20055;-60
2022/10/24 13:24:36;;;;;;;5.33;3.20;;;;;;;;;;5113583;28;20096;-60
2022/10/24 13:27:06;;;;;;;5.17;4.10;;;;;;;;;;5113151;28;20023;-60
2022/10/24 13:29:32;;;;;;;4.63;3.83;;;;;;;;;;5102421;28;20134;-60
2022/10/24 13:32:05;;;;;;;6.33;3.17;;;;;;;;;;5091160;28;20830;-60
2022/10/24 13:34:53;;;;;;;5.37;3.07;;;;;;;;;;5097079;28;20495;-62
2022/10/24 13:37:23;;;;;;;5.80;3.33;;;;;;;;;;5107840;28;20024;-62
2022/10/24 13:40:08;;;;;;;4.67;3.40;;;;;;;;;;5108013;28;20050;-62
2022/10/24 13:42:36;;;;;;;7.82;4.43;;;;;;;;;;5110530;28;20077;-63
2022/10/24 13:45:21;;;;;;;4.33;3.43;;;;;;;;;;5098668;28;20052;-62
2022/10/24 13:47:53;;;;;;;9.15;5.10;;;;;;;;;;5092826;28;20622;-63
2022/10/24 13:50:29;;;;;;;5.13;3.50;;;;;;;;;;5072683;28;20511;-62
2022/10/24 13:53:13;;;;;;;4.47;3.60;;;;;;;;;;5072502;28;20050;-62
2022/10/24 13:55:45;;;;;;;3.63;3.03;;;;;;;;;;5067694;28;20036;-62
2022/10/24 13:58:17;;;;;;;3.83;2.80;;;;;;;;;;5066960;28;20031;-64
2022/10/24 14:00:53;;;;;;;3.93;2.63;;;;;;;;;;5070677;28;20723;-66
2022/10/24 14:03:23;;;;;;;7.80;4.23;;;;;;;;;;5098525;28;20429;-68
2022/10/24 14:05:54;;;;;;;3.30;2.67;;;;;;;;;;5094501;28;20020;-65
2022/10/24 14:08:21;;;;;;;3.83;3.23;;;;;;;;;;5089270;28;20082;-64
2022/10/24 14:10:47;;;;;;;5.57;4.13;;;;;;;;;;5091028;28;20444;-65
2022/10/24 14:13:16;;;;;;;6.43;4.03;;;;;;;;;;5083955;28;20039;-66
2022/10/24 14:15:48;;;;;;;4.80;4.30;;;;;;;;;;5072368;28;20039;-66
2022/10/24 14:18:15;;;;;;;22.20;4.97;;;;;;;;;;5074352;28;20024;-64
2022/10/24 14:20:42;;;;;;;6.07;4.50;;;;;;;;;;5107915;28;20754;-65
2022/10/24 14:23:38;;;;;;;4.53;3.80;;;;;;;;;;5076169;28;20035;-65
2022/10/24 14:26:14;;;;;;;4.87;3.73;;;;;;;;;;5050978;28;20032;-64
2022/10/24 14:28:59;;;;;;;9.17;4.23;;;;;;;;;;5072480;28;20025;-64
2022/10/24 14:31:36;;;;;;;12.80;5.23;;;;;;;;;;5072317;28;20024;-64
2022/10/24 14:34:08;;;;;;;21.67;3.73;;;;;;;;;;5075256;28;20050;-64
2022/10/24 14:36:40;;;;;;;3.50;2.77;;;;;;;;;;5106382;28;20024;-65
2022/10/24 14:39:07;;;;;;;7.77;3.67;;;;;;;;;;5099269;28;20028;-65
2022/10/24 14:41:38;;;;;;;7.50;4.83;;;;;;;;;;5087408;28;20024;-65
2022/10/24 14:44:05;;;;;;;6.03;3.77;;;;;;;;;;5087287;28;20675;-65
2022/10/24 14:46:36;;;;;;;5.93;3.67;;;;;;;;;;5079367;28;20024;-66
2022/10/24 14:49:21;;;;;;;6.90;4.37;;;;;;;;;;5068876;28;20036;-65
2022/10/24 14:51:49;;;;;;;4.63;3.78;;;;;;;;;;5072087;28;20052;-67
2022/10/24 14:54:21;;;;;;;5.20;3.87;;;;;;;;;;5071423;28;20111;-66
2022/10/24 14:56:48;;;;;;;7.10;4.17;;;;;;;;;;5072045;28;20101;-65
2022/10/24 14:59:26;;;;;;;7.30;3.87;;;;;;;;;;5072805;28;20035;-64
2022/10/24 15:01:59;;;;;;;7.30;3.63;;;;;;;;;;5069303;28;20063;-64